sensor_id;sensor_type;location;lat;lon;timestamp;P1;durP1;ratioP1;P2;durP2;ratioP2
24335;SDS011;75016;52.400;16.880;2024-01-15T00:00:59;12.70;;;8.90;;
24335;SDS011;75016;52.400;16.880;2024-01-15T00:03:46;12.40;;;8.20;;
24335;SDS011;75016;52.400;16.880;2024-01-15T00:06:12;10.90;;;7.90;;
24335;SDS011;75016;52.400;16.880;2024-01-15T00:08:39;12.80;;;8.20;;
24335;SDS011;75016;52.400;16.880;2024-01-15T00:11:06;13.90;;;8.40;;
24335;SDS011;75016;52.400;16.880;2024-01-15T00:13:32;11.50;;;8.50;;
24335;SDS011;75016;52.400;16.880;2024-01-15T00:15:59;11.00;;;8.20;;
24335;SDS011;75016;52.400;16.880;2024-01-15T00:18:25;12.50;;;8.90;;
24335;SDS011;75016;52.400;16.880;2024-01-15T00:20:52;12.90;;;8.90;;
24335;SDS011;75016;52.400;16.880;2024-01-15T00:23:18;11.40;;;8.10;;
24335;SDS011;75016;52.400;16.880;2024-01-15T00:25:45;11.00;;;8.20;;
24335;SDS011;75016;52.400;16.880;2024-01-15T00:28:11;12.90;;;9.20;;
24335;SDS011;75016;52.400;16.880;2024-01-15T00:30:38;14.10;;;9.70;;
24335;SDS011;75016;52.400;16.880;2024-01-15T00:33:04;12.50;;;9.00;;
24335;SDS011;75016;52.400;16.880;2024-01-15T00:35:31;12.30;;;8.80;;
24335;SDS011;75016;52.400;16.880;2024-01-15T00:37:57;10.80;;;8.20;;
24335;SDS011;75016;52.400;16.880;2024-01-15T00:40:24;13.00;;;8.70;;
24335;SDS011;75016;52.400;16.880;2024-01-15T00:42:52;13.20;;;9.40;;
24335;SDS011;75016;52.400;16.880;2024-01-15T00:45:18;12.50;;;8.80;;
24335;SDS011;75016;52.400;16.880;2024-01-15T00:47:44;13.00;;;8.90;;
24335;SDS011;75016;52.400;16.880;2024-01-15T00:50:11;12.90;;;8.70;;
24335;SDS011;75016;52.400;16.880;2024-01-15T00:52:37;14.50;;;9.30;;
24335;SDS011;75016;52.400;16.880;2024-01-15T00:55:04;13.30;;;9.10;;
24335;SDS011;75016;52.400;16.880;2024-01-15T00:57:31;15.30;;;10.00;;
24335;SDS011;75016;52.400;16.880;2024-01-15T00:59:59;13.00;;;9.20;;
24335;SDS011;75016;52.400;16.880;2024-01-15T01:02:26;13.30;;;8.80;;
24335;SDS011;75016;52.400;16.880;2024-01-15T01:04:52;15.00;;;10.30;;
24335;SDS011;75016;52.400;16.880;2024-01-15T01:07:19;14.40;;;10.00;;
24335;SDS011;75016;52.400;16.880;2024-01-15T01:09:46;13.20;;;9.10;;
24335;SDS011;75016;52.400;16.880;2024-01-15T01:12:14;13.60;;;8.90;;
24335;SDS011;75016;52.400;16.880;2024-01-15T01:14:40;14.40;;;10.30;;
24335;SDS011;75016;52.400;16.880;2024-01-15T01:17:07;16.30;;;10.40;;
24335;SDS011;75016;52.400;16.880;2024-01-15T01:19:33;14.60;;;10.50;;
24335;SDS011;75016;52.400;16.880;2024-01-15T01:22:00;14.00;;;9.80;;
24335;SDS011;75016;52.400;16.880;2024-01-15T01:24:26;13.90;;;9.30;;
24335;SDS011;75016;52.400;16.880;2024-01-15T01:26:53;14.10;;;9.40;;
24335;SDS011;75016;52.400;16.880;2024-01-15T01:29:20;13.40;;;9.80;;
24335;SDS011;75016;52.400;16.880;2024-01-15T01:31:46;14.50;;;9.80;;
24335;SDS011;75016;52.400;16.880;2024-01-15T01:34:13;13.90;;;10.00;;
24335;SDS011;75016;52.400;16.880;2024-01-15T01:36:41;15.20;;;10.50;;
24335;SDS011;75016;52.400;16.880;2024-01-15T01:39:09;14.50;;;9.40;;
24335;SDS011;75016;52.400;16.880;2024-01-15T01:41:36;14.90;;;9.50;;
24335;SDS011;75016;52.400;16.880;2024-01-15T01:44:02;12.50;;;8.70;;
24335;SDS011;75016;52.400;16.880;2024-01-15T01:46:29;12.80;;;8.80;;
24335;SDS011;75016;52.400;16.880;2024-01-15T01:48:56;13.40;;;9.40;;
24335;SDS011;75016;52.400;16.880;2024-01-15T01:51:24;13.00;;;9.40;;
24335;SDS011;75016;52.400;16.880;2024-01-15T01:53:51;14.50;;;9.40;;
24335;SDS011;75016;52.400;16.880;2024-01-15T01:56:18;15.20;;;9.90;;
24335;SDS011;75016;52.400;16.880;2024-01-15T01:58:44;14.30;;;9.50;;
24335;SDS011;75016;52.400;16.880;2024-01-15T02:01:11;14.50;;;9.00;;
24335;SDS011;75016;52.400;16.880;2024-01-15T02:03:39;14.00;;;9.40;;
24335;SDS011;75016;52.400;16.880;2024-01-15T02:06:06;14.50;;;9.80;;
24335;SDS011;75016;52.400;16.880;2024-01-15T02:08:34;12.80;;;8.60;;
24335;SDS011;75016;52.400;16.880;2024-01-15T02:11:01;13.50;;;8.60;;
24335;SDS011;75016;52.400;16.880;2024-01-15T02:13:27;14.40;;;9.30;;
24335;SDS011;75016;52.400;16.880;2024-01-15T02:15:54;13.80;;;9.00;;
24335;SDS011;75016;52.400;16.880;2024-01-15T02:18:21;12.00;;;8.20;;
24335;SDS011;75016;52.400;16.880;2024-01-15T02:20:47;11.40;;;8.70;;
24335;SDS011;75016;52.400;16.880;2024-01-15T02:23:14;13.40;;;8.70;;
24335;SDS011;75016;52.400;16.880;2024-01-15T02:25:42;11.70;;;8.20;;
24335;SDS011;75016;52.400;16.880;2024-01-15T02:28:12;11.00;;;8.00;;
24335;SDS011;75016;52.400;16.880;2024-01-15T02:30:40;13.10;;;8.90;;
24335;SDS011;75016;52.400;16.880;2024-01-15T02:33:08;9.00;;;5.90;;
24335;SDS011;75016;52.400;16.880;2024-01-15T02:35:35;11.90;;;7.80;;
24335;SDS011;75016;52.400;16.880;2024-01-15T02:38:03;11.10;;;7.80;;
24335;SDS011;75016;52.400;16.880;2024-01-15T02:40:30;11.50;;;7.70;;
24335;SDS011;75016;52.400;16.880;2024-01-15T02:42:57;12.90;;;8.70;;
24335;SDS011;75016;52.400;16.880;2024-01-15T02:45:24;12.80;;;8.50;;
24335;SDS011;75016;52.400;16.880;2024-01-15T02:47:51;14.20;;;7.50;;
24335;SDS011;75016;52.400;16.880;2024-01-15T02:50:18;13.50;;;8.90;;
24335;SDS011;75016;52.400;16.880;2024-01-15T02:52:44;13.10;;;8.60;;
24335;SDS011;75016;52.400;16.880;2024-01-15T02:55:11;11.70;;;8.70;;
24335;SDS011;75016;52.400;16.880;2024-01-15T02:57:38;10.40;;;7.70;;
24335;SDS011;75016;52.400;16.880;2024-01-15T03:00:04;12.50;;;8.40;;
24335;SDS011;75016;52.400;16.880;2024-01-15T03:02:31;10.40;;;7.30;;
24335;SDS011;75016;52.400;16.880;2024-01-15T03:04:58;13.50;;;8.40;;
24335;SDS011;75016;52.400;16.880;2024-01-15T03:07:25;13.10;;;8.80;;
24335;SDS011;75016;52.400;16.880;2024-01-15T03:09:51;11.00;;;7.80;;
24335;SDS011;75016;52.400;16.880;2024-01-15T03:12:18;12.70;;;8.70;;
24335;SDS011;75016;52.400;16.880;2024-01-15T03:14:44;12.10;;;8.80;;
24335;SDS011;75016;52.400;16.880;2024-01-15T03:17:11;14.00;;;8.60;;
24335;SDS011;75016;52.400;16.880;2024-01-15T03:19:38;13.00;;;8.70;;
24335;SDS011;75016;52.400;16.880;2024-01-15T03:22:05;13.10;;;8.70;;
24335;SDS011;75016;52.400;16.880;2024-01-15T03:24:34;12.80;;;9.40;;
24335;SDS011;75016;52.400;16.880;2024-01-15T03:27:01;14.20;;;8.80;;
24335;SDS011;75016;52.400;16.880;2024-01-15T03:29:29;13.90;;;9.30;;
24335;SDS011;75016;52.400;16.880;2024-01-15T03:31:55;12.80;;;8.70;;
24335;SDS011;75016;52.400;16.880;2024-01-15T03:34:22;13.50;;;8.80;;
24335;SDS011;75016;52.400;16.880;2024-01-15T03:36:48;13.70;;;9.20;;
24335;SDS011;75016;52.400;16.880;2024-01-15T03:39:14;13.30;;;8.90;;
24335;SDS011;75016;52.400;16.880;2024-01-15T03:41:41;12.40;;;8.00;;
24335;SDS011;75016;52.400;16.880;2024-01-15T03:44:07;12.40;;;8.60;;
24335;SDS011;75016;52.400;16.880;2024-01-15T03:46:34;11.80;;;8.50;;
24335;SDS011;75016;52.400;16.880;2024-01-15T03:49:00;11.50;;;7.60;;
24335;SDS011;75016;52.400;16.880;2024-01-15T03:51:27;12.80;;;8.70;;
24335;SDS011;75016;52.400;16.880;2024-01-15T03:53:53;11.50;;;8.50;;
24335;SDS011;75016;52.400;16.880;2024-01-15T03:56:20;11.30;;;8.10;;
24335;SDS011;75016;52.400;16.880;2024-01-15T03:58:46;13.20;;;8.60;;
24335;SDS011;75016;52.400;16.880;2024-01-15T04:01:13;12.60;;;8.40;;
24335;SDS011;75016;52.400;16.880;2024-01-15T04:03:39;12.40;;;8.60;;
24335;SDS011;75016;52.400;16.880;2024-01-15T04:06:06;9.80;;;7.40;;
24335;SDS011;75016;52.400;16.880;2024-01-15T04:08:32;10.70;;;7.60;;
24335;SDS011;75016;52.400;16.880;2024-01-15T04:10:59;11.90;;;8.20;;
24335;SDS011;75016;52.400;16.880;2024-01-15T04:13:26;11.40;;;7.90;;
24335;SDS011;75016;52.400;16.880;2024-01-15T04:15:52;11.20;;;7.50;;
24335;SDS011;75016;52.400;16.880;2024-01-15T04:18:19;12.00;;;7.80;;
24335;SDS011;75016;52.400;16.880;2024-01-15T04:20:45;11.40;;;7.50;;
24335;SDS011;75016;52.400;16.880;2024-01-15T04:23:12;11.40;;;7.30;;
24335;SDS011;75016;52.400;16.880;2024-01-15T04:25:38;10.90;;;6.80;;
24335;SDS011;75016;52.400;16.880;2024-01-15T04:28:09;11.10;;;7.40;;
24335;SDS011;75016;52.400;16.880;2024-01-15T04:30:35;10.00;;;6.70;;
24335;SDS011;75016;52.400;16.880;2024-01-15T04:33:02;10.50;;;7.20;;
24335;SDS011;75016;52.400;16.880;2024-01-15T04:35:30;9.50;;;6.50;;
24335;SDS011;75016;52.400;16.880;2024-01-15T04:37:57;10.10;;;6.60;;
24335;SDS011;75016;52.400;16.880;2024-01-15T04:40:23;10.20;;;6.10;;
24335;SDS011;75016;52.400;16.880;2024-01-15T04:42:54;8.70;;;5.90;;
24335;SDS011;75016;52.400;16.880;2024-01-15T04:45:20;10.50;;;6.70;;
24335;SDS011;75016;52.400;16.880;2024-01-15T04:47:49;9.30;;;5.30;;
24335;SDS011;75016;52.400;16.880;2024-01-15T04:50:15;8.40;;;5.60;;
24335;SDS011;75016;52.400;16.880;2024-01-15T04:52:42;7.00;;;4.90;;
24335;SDS011;75016;52.400;16.880;2024-01-15T04:55:08;6.80;;;5.00;;
24335;SDS011;75016;52.400;16.880;2024-01-15T04:57:35;7.10;;;5.20;;
24335;SDS011;75016;52.400;16.880;2024-01-15T05:00:01;7.70;;;5.40;;
24335;SDS011;75016;52.400;16.880;2024-01-15T05:02:28;7.40;;;4.90;;
24335;SDS011;75016;52.400;16.880;2024-01-15T05:04:55;8.30;;;5.50;;
24335;SDS011;75016;52.400;16.880;2024-01-15T05:07:21;8.90;;;5.60;;
24335;SDS011;75016;52.400;16.880;2024-01-15T05:09:48;9.80;;;6.10;;
24335;SDS011;75016;52.400;16.880;2024-01-15T05:12:15;8.30;;;5.20;;
24335;SDS011;75016;52.400;16.880;2024-01-15T05:14:41;8.50;;;5.50;;
24335;SDS011;75016;52.400;16.880;2024-01-15T05:17:08;9.10;;;5.70;;
24335;SDS011;75016;52.400;16.880;2024-01-15T05:19:35;8.90;;;5.50;;
24335;SDS011;75016;52.400;16.880;2024-01-15T05:22:01;7.80;;;5.60;;
24335;SDS011;75016;52.400;16.880;2024-01-15T05:24:28;8.80;;;5.60;;
24335;SDS011;75016;52.400;16.880;2024-01-15T05:26:54;10.10;;;5.80;;
24335;SDS011;75016;52.400;16.880;2024-01-15T05:29:21;8.90;;;5.80;;
24335;SDS011;75016;52.400;16.880;2024-01-15T05:31:47;8.30;;;5.30;;
24335;SDS011;75016;52.400;16.880;2024-01-15T05:34:14;7.30;;;5.30;;
24335;SDS011;75016;52.400;16.880;2024-01-15T05:36:40;5.00;;;3.10;;
24335;SDS011;75016;52.400;16.880;2024-01-15T05:39:07;7.40;;;5.00;;
24335;SDS011;75016;52.400;16.880;2024-01-15T05:41:34;7.00;;;4.70;;
24335;SDS011;75016;52.400;16.880;2024-01-15T05:44:00;7.30;;;5.50;;
24335;SDS011;75016;52.400;16.880;2024-01-15T05:46:27;8.00;;;5.20;;
24335;SDS011;75016;52.400;16.880;2024-01-15T05:48:53;7.50;;;5.40;;
24335;SDS011;75016;52.400;16.880;2024-01-15T05:51:20;8.20;;;5.10;;
24335;SDS011;75016;52.400;16.880;2024-01-15T05:53:46;7.80;;;4.90;;
24335;SDS011;75016;52.400;16.880;2024-01-15T05:56:13;10.00;;;5.10;;
24335;SDS011;75016;52.400;16.880;2024-01-15T05:58:39;10.20;;;4.90;;
24335;SDS011;75016;52.400;16.880;2024-01-15T06:01:06;7.10;;;4.70;;
24335;SDS011;75016;52.400;16.880;2024-01-15T06:03:32;7.70;;;5.00;;
24335;SDS011;75016;52.400;16.880;2024-01-15T06:05:59;9.60;;;5.50;;
24335;SDS011;75016;52.400;16.880;2024-01-15T06:08:25;9.80;;;5.50;;
24335;SDS011;75016;52.400;16.880;2024-01-15T06:10:55;7.90;;;4.60;;
24335;SDS011;75016;52.400;16.880;2024-01-15T06:13:22;10.00;;;5.40;;
24335;SDS011;75016;52.400;16.880;2024-01-15T06:15:49;8.50;;;5.30;;
24335;SDS011;75016;52.400;16.880;2024-01-15T06:18:15;11.00;;;5.50;;
24335;SDS011;75016;52.400;16.880;2024-01-15T06:20:42;8.90;;;5.40;;
24335;SDS011;75016;52.400;16.880;2024-01-15T06:23:09;7.70;;;5.50;;
24335;SDS011;75016;52.400;16.880;2024-01-15T06:25:35;7.70;;;5.40;;
24335;SDS011;75016;52.400;16.880;2024-01-15T06:28:01;8.40;;;5.30;;
24335;SDS011;75016;52.400;16.880;2024-01-15T06:30:28;8.90;;;5.20;;
24335;SDS011;75016;52.400;16.880;2024-01-15T06:32:56;7.60;;;4.90;;
24335;SDS011;75016;52.400;16.880;2024-01-15T06:35:22;7.70;;;5.00;;
24335;SDS011;75016;52.400;16.880;2024-01-15T06:37:49;7.90;;;5.30;;
24335;SDS011;75016;52.400;16.880;2024-01-15T06:40:15;7.20;;;5.00;;
24335;SDS011;75016;52.400;16.880;2024-01-15T06:42:42;11.10;;;5.70;;
24335;SDS011;75016;52.400;16.880;2024-01-15T06:45:08;11.50;;;6.00;;
24335;SDS011;75016;52.400;16.880;2024-01-15T06:47:35;9.50;;;5.60;;
24335;SDS011;75016;52.400;16.880;2024-01-15T06:50:02;9.90;;;5.40;;
24335;SDS011;75016;52.400;16.880;2024-01-15T06:52:28;13.20;;;6.10;;
24335;SDS011;75016;52.400;16.880;2024-01-15T06:54:55;12.20;;;5.80;;
24335;SDS011;75016;52.400;16.880;2024-01-15T06:57:21;8.70;;;5.40;;
24335;SDS011;75016;52.400;16.880;2024-01-15T06:59:48;10.00;;;5.40;;
24335;SDS011;75016;52.400;16.880;2024-01-15T07:02:15;8.30;;;5.00;;
24335;SDS011;75016;52.400;16.880;2024-01-15T07:04:42;10.00;;;5.70;;
24335;SDS011;75016;52.400;16.880;2024-01-15T07:07:08;8.60;;;5.40;;
24335;SDS011;75016;52.400;16.880;2024-01-15T07:09:35;10.70;;;5.80;;
24335;SDS011;75016;52.400;16.880;2024-01-15T07:12:02;10.90;;;6.00;;
24335;SDS011;75016;52.400;16.880;2024-01-15T07:14:28;8.10;;;4.60;;
24335;SDS011;75016;52.400;16.880;2024-01-15T07:16:55;7.20;;;5.40;;
24335;SDS011;75016;52.400;16.880;2024-01-15T07:19:22;9.70;;;5.40;;
24335;SDS011;75016;52.400;16.880;2024-01-15T07:21:48;8.50;;;5.20;;
24335;SDS011;75016;52.400;16.880;2024-01-15T07:24:15;9.10;;;5.60;;
24335;SDS011;75016;52.400;16.880;2024-01-15T07:26:41;9.90;;;5.70;;
24335;SDS011;75016;52.400;16.880;2024-01-15T07:29:08;9.60;;;5.60;;
24335;SDS011;75016;52.400;16.880;2024-01-15T07:31:34;9.90;;;4.80;;
24335;SDS011;75016;52.400;16.880;2024-01-15T07:34:01;9.80;;;5.30;;
24335;SDS011;75016;52.400;16.880;2024-01-15T07:36:27;9.30;;;5.70;;
24335;SDS011;75016;52.400;16.880;2024-01-15T07:38:54;10.40;;;5.60;;
24335;SDS011;75016;52.400;16.880;2024-01-15T07:41:20;10.70;;;5.10;;
24335;SDS011;75016;52.400;16.880;2024-01-15T07:43:47;9.00;;;5.20;;
24335;SDS011;75016;52.400;16.880;2024-01-15T07:46:13;11.50;;;4.90;;
24335;SDS011;75016;52.400;16.880;2024-01-15T07:48:40;6.80;;;4.20;;
24335;SDS011;75016;52.400;16.880;2024-01-15T07:51:06;9.60;;;5.20;;
24335;SDS011;75016;52.400;16.880;2024-01-15T07:53:33;10.80;;;5.80;;
24335;SDS011;75016;52.400;16.880;2024-01-15T07:55:59;10.30;;;6.30;;
24335;SDS011;75016;52.400;16.880;2024-01-15T07:58:26;10.60;;;6.10;;
24335;SDS011;75016;52.400;16.880;2024-01-15T08:00:53;9.40;;;5.50;;
24335;SDS011;75016;52.400;16.880;2024-01-15T08:03:19;10.10;;;5.30;;
24335;SDS011;75016;52.400;16.880;2024-01-15T08:05:46;10.60;;;5.70;;
24335;SDS011;75016;52.400;16.880;2024-01-15T08:08:13;11.00;;;6.60;;
24335;SDS011;75016;52.400;16.880;2024-01-15T08:10:39;7.90;;;5.30;;
24335;SDS011;75016;52.400;16.880;2024-01-15T08:13:06;9.10;;;5.50;;
24335;SDS011;75016;52.400;16.880;2024-01-15T08:15:34;9.70;;;5.90;;
24335;SDS011;75016;52.400;16.880;2024-01-15T08:18:01;8.80;;;5.00;;
24335;SDS011;75016;52.400;16.880;2024-01-15T08:20:28;10.10;;;5.50;;
24335;SDS011;75016;52.400;16.880;2024-01-15T08:22:55;9.50;;;5.30;;
24335;SDS011;75016;52.400;16.880;2024-01-15T08:25:21;9.40;;;5.70;;
24335;SDS011;75016;52.400;16.880;2024-01-15T08:27:47;12.30;;;5.70;;
24335;SDS011;75016;52.400;16.880;2024-01-15T08:30:14;11.10;;;5.80;;
24335;SDS011;75016;52.400;16.880;2024-01-15T08:32:41;11.70;;;5.90;;
24335;SDS011;75016;52.400;16.880;2024-01-15T08:35:08;12.00;;;6.30;;
24335;SDS011;75016;52.400;16.880;2024-01-15T08:37:35;10.50;;;5.80;;
24335;SDS011;75016;52.400;16.880;2024-01-15T08:40:02;11.00;;;5.70;;
24335;SDS011;75016;52.400;16.880;2024-01-15T08:42:29;9.00;;;4.80;;
24335;SDS011;75016;52.400;16.880;2024-01-15T08:44:56;12.00;;;5.40;;
24335;SDS011;75016;52.400;16.880;2024-01-15T08:47:23;12.20;;;5.80;;
24335;SDS011;75016;52.400;16.880;2024-01-15T08:49:49;11.90;;;5.80;;
24335;SDS011;75016;52.400;16.880;2024-01-15T08:52:16;10.70;;;5.70;;
24335;SDS011;75016;52.400;16.880;2024-01-15T08:54:42;8.00;;;4.80;;
24335;SDS011;75016;52.400;16.880;2024-01-15T08:57:09;9.50;;;5.70;;
24335;SDS011;75016;52.400;16.880;2024-01-15T08:59:35;11.70;;;5.80;;
24335;SDS011;75016;52.400;16.880;2024-01-15T09:02:02;9.40;;;5.60;;
24335;SDS011;75016;52.400;16.880;2024-01-15T09:04:28;9.10;;;4.50;;
24335;SDS011;75016;52.400;16.880;2024-01-15T09:06:55;10.10;;;5.40;;
24335;SDS011;75016;52.400;16.880;2024-01-15T09:09:21;10.20;;;5.00;;
24335;SDS011;75016;52.400;16.880;2024-01-15T09:11:48;8.70;;;4.90;;
24335;SDS011;75016;52.400;16.880;2024-01-15T09:14:15;8.40;;;4.80;;
24335;SDS011;75016;52.400;16.880;2024-01-15T09:16:41;9.90;;;5.10;;
24335;SDS011;75016;52.400;16.880;2024-01-15T09:19:08;10.10;;;5.00;;
24335;SDS011;75016;52.400;16.880;2024-01-15T09:21:34;7.70;;;4.80;;
24335;SDS011;75016;52.400;16.880;2024-01-15T09:24:01;9.10;;;4.20;;
24335;SDS011;75016;52.400;16.880;2024-01-15T09:26:27;9.10;;;4.80;;
24335;SDS011;75016;52.400;16.880;2024-01-15T09:28:54;9.20;;;5.00;;
24335;SDS011;75016;52.400;16.880;2024-01-15T09:31:20;8.80;;;4.70;;
24335;SDS011;75016;52.400;16.880;2024-01-15T09:33:47;11.00;;;5.90;;
24335;SDS011;75016;52.400;16.880;2024-01-15T09:36:14;11.60;;;5.60;;
24335;SDS011;75016;52.400;16.880;2024-01-15T09:38:41;8.80;;;5.00;;
24335;SDS011;75016;52.400;16.880;2024-01-15T09:41:08;9.30;;;5.90;;
24335;SDS011;75016;52.400;16.880;2024-01-15T09:43:34;8.10;;;4.50;;
24335;SDS011;75016;52.400;16.880;2024-01-15T09:46:03;9.80;;;5.40;;
24335;SDS011;75016;52.400;16.880;2024-01-15T09:48:30;10.80;;;5.00;;
24335;SDS011;75016;52.400;16.880;2024-01-15T09:51:01;6.30;;;3.70;;
24335;SDS011;75016;52.400;16.880;2024-01-15T09:53:28;9.80;;;4.80;;
24335;SDS011;75016;52.400;16.880;2024-01-15T09:55:54;7.00;;;3.90;;
24335;SDS011;75016;52.400;16.880;2024-01-15T09:58:21;7.80;;;4.10;;
24335;SDS011;75016;52.400;16.880;2024-01-15T10:00:48;11.50;;;5.30;;
24335;SDS011;75016;52.400;16.880;2024-01-15T10:03:16;8.60;;;4.60;;
24335;SDS011;75016;52.400;16.880;2024-01-15T10:05:43;8.60;;;4.60;;
24335;SDS011;75016;52.400;16.880;2024-01-15T10:08:10;10.50;;;5.40;;
24335;SDS011;75016;52.400;16.880;2024-01-15T10:10:37;8.70;;;4.70;;
24335;SDS011;75016;52.400;16.880;2024-01-15T10:13:04;8.40;;;3.80;;
24335;SDS011;75016;52.400;16.880;2024-01-15T10:15:33;8.00;;;4.60;;
24335;SDS011;75016;52.400;16.880;2024-01-15T10:18:03;8.30;;;4.20;;
24335;SDS011;75016;52.400;16.880;2024-01-15T10:20:31;8.20;;;4.50;;
24335;SDS011;75016;52.400;16.880;2024-01-15T10:22:59;8.50;;;4.50;;
24335;SDS011;75016;52.400;16.880;2024-01-15T10:25:25;8.00;;;4.70;;
24335;SDS011;75016;52.400;16.880;2024-01-15T10:27:59;7.10;;;3.90;;
24335;SDS011;75016;52.400;16.880;2024-01-15T10:30:27;7.10;;;3.80;;
24335;SDS011;75016;52.400;16.880;2024-01-15T10:32:57;9.30;;;4.20;;
24335;SDS011;75016;52.400;16.880;2024-01-15T10:35:32;8.10;;;4.10;;
24335;SDS011;75016;52.400;16.880;2024-01-15T10:38:00;6.80;;;4.00;;
24335;SDS011;75016;52.400;16.880;2024-01-15T10:40:27;7.20;;;3.50;;
24335;SDS011;75016;52.400;16.880;2024-01-15T10:42:54;5.90;;;3.90;;
24335;SDS011;75016;52.400;16.880;2024-01-15T10:45:21;10.20;;;4.20;;
24335;SDS011;75016;52.400;16.880;2024-01-15T10:47:49;6.40;;;3.30;;
24335;SDS011;75016;52.400;16.880;2024-01-15T10:50:15;9.80;;;4.40;;
24335;SDS011;75016;52.400;16.880;2024-01-15T10:52:42;8.00;;;4.50;;
24335;SDS011;75016;52.400;16.880;2024-01-15T10:55:09;7.60;;;3.90;;
24335;SDS011;75016;52.400;16.880;2024-01-15T10:57:36;4.90;;;3.10;;
24335;SDS011;75016;52.400;16.880;2024-01-15T11:00:04;6.30;;;3.30;;
24335;SDS011;75016;52.400;16.880;2024-01-15T11:02:32;6.90;;;3.30;;
24335;SDS011;75016;52.400;16.880;2024-01-15T11:05:00;9.00;;;2.80;;
24335;SDS011;75016;52.400;16.880;2024-01-15T11:07:27;8.60;;;3.60;;
24335;SDS011;75016;52.400;16.880;2024-01-15T11:09:56;8.70;;;4.00;;
24335;SDS011;75016;52.400;16.880;2024-01-15T11:12:25;5.00;;;2.60;;
24335;SDS011;75016;52.400;16.880;2024-01-15T11:14:52;6.40;;;3.80;;
24335;SDS011;75016;52.400;16.880;2024-01-15T11:17:57;7.20;;;3.30;;
24335;SDS011;75016;52.400;16.880;2024-01-15T11:20:31;10.00;;;4.20;;
24335;SDS011;75016;52.400;16.880;2024-01-15T11:22:59;7.00;;;3.80;;
24335;SDS011;75016;52.400;16.880;2024-01-15T11:25:33;7.20;;;3.30;;
24335;SDS011;75016;52.400;16.880;2024-01-15T11:28:03;6.80;;;3.10;;
24335;SDS011;75016;52.400;16.880;2024-01-15T11:30:30;8.10;;;3.40;;
24335;SDS011;75016;52.400;16.880;2024-01-15T11:32:56;9.50;;;3.30;;
24335;SDS011;75016;52.400;16.880;2024-01-15T11:35:23;7.00;;;3.30;;
24335;SDS011;75016;52.400;16.880;2024-01-15T11:38:26;11.20;;;3.90;;
24335;SDS011;75016;52.400;16.880;2024-01-15T11:40:55;7.50;;;3.30;;
24335;SDS011;75016;52.400;16.880;2024-01-15T11:43:21;8.20;;;3.60;;
24335;SDS011;75016;52.400;16.880;2024-01-15T11:45:50;9.90;;;3.20;;
24335;SDS011;75016;52.400;16.880;2024-01-15T11:48:19;4.90;;;2.90;;
24335;SDS011;75016;52.400;16.880;2024-01-15T11:50:46;6.70;;;2.80;;
24335;SDS011;75016;52.400;16.880;2024-01-15T11:53:16;6.90;;;2.50;;
24335;SDS011;75016;52.400;16.880;2024-01-15T11:55:45;7.00;;;2.70;;
24335;SDS011;75016;52.400;16.880;2024-01-15T11:58:12;6.40;;;2.70;;
24335;SDS011;75016;52.400;16.880;2024-01-15T12:00:39;4.80;;;2.50;;
24335;SDS011;75016;52.400;16.880;2024-01-15T12:03:14;6.50;;;2.70;;
24335;SDS011;75016;52.400;16.880;2024-01-15T12:05:41;8.50;;;3.20;;
24335;SDS011;75016;52.400;16.880;2024-01-15T12:08:10;5.20;;;2.90;;
24335;SDS011;75016;52.400;16.880;2024-01-15T12:10:37;6.60;;;2.90;;
24335;SDS011;75016;52.400;16.880;2024-01-15T12:13:10;6.80;;;2.90;;
24335;SDS011;75016;52.400;16.880;2024-01-15T12:15:39;8.40;;;3.30;;
24335;SDS011;75016;52.400;16.880;2024-01-15T12:18:07;5.80;;;3.40;;
24335;SDS011;75016;52.400;16.880;2024-01-15T12:20:35;10.10;;;4.00;;
24335;SDS011;75016;52.400;16.880;2024-01-15T12:23:02;9.30;;;3.60;;
24335;SDS011;75016;52.400;16.880;2024-01-15T12:25:30;9.20;;;3.90;;
24335;SDS011;75016;52.400;16.880;2024-01-15T12:27:57;9.10;;;3.90;;
24335;SDS011;75016;52.400;16.880;2024-01-15T12:30:29;8.20;;;3.20;;
24335;SDS011;75016;52.400;16.880;2024-01-15T12:33:06;7.40;;;2.60;;
24335;SDS011;75016;52.400;16.880;2024-01-15T12:35:34;6.60;;;3.60;;
24335;SDS011;75016;52.400;16.880;2024-01-15T12:38:01;7.60;;;3.40;;
24335;SDS011;75016;52.400;16.880;2024-01-15T12:40:31;6.70;;;3.80;;
24335;SDS011;75016;52.400;16.880;2024-01-15T12:43:00;9.40;;;3.90;;
24335;SDS011;75016;52.400;16.880;2024-01-15T12:45:27;6.40;;;2.80;;
24335;SDS011;75016;52.400;16.880;2024-01-15T12:47:53;6.20;;;2.80;;
24335;SDS011;75016;52.400;16.880;2024-01-15T12:50:23;4.20;;;2.10;;
24335;SDS011;75016;52.400;16.880;2024-01-15T12:52:51;7.10;;;2.90;;
24335;SDS011;75016;52.400;16.880;2024-01-15T12:55:17;5.80;;;2.40;;
24335;SDS011;75016;52.400;16.880;2024-01-15T12:57:44;7.70;;;2.50;;
24335;SDS011;75016;52.400;16.880;2024-01-15T13:00:11;4.90;;;2.50;;
24335;SDS011;75016;52.400;16.880;2024-01-15T13:02:39;5.70;;;2.60;;
24335;SDS011;75016;52.400;16.880;2024-01-15T13:05:09;4.60;;;2.40;;
24335;SDS011;75016;52.400;16.880;2024-01-15T13:07:37;6.20;;;2.90;;
24335;SDS011;75016;52.400;16.880;2024-01-15T13:10:04;5.50;;;2.10;;
24335;SDS011;75016;52.400;16.880;2024-01-15T13:12:32;6.10;;;2.90;;
24335;SDS011;75016;52.400;16.880;2024-01-15T13:14:59;5.30;;;2.40;;
24335;SDS011;75016;52.400;16.880;2024-01-15T13:17:26;6.80;;;2.60;;
24335;SDS011;75016;52.400;16.880;2024-01-15T13:19:53;5.10;;;2.40;;
24335;SDS011;75016;52.400;16.880;2024-01-15T13:22:19;5.40;;;2.90;;
24335;SDS011;75016;52.400;16.880;2024-01-15T13:24:46;5.20;;;2.20;;
24335;SDS011;75016;52.400;16.880;2024-01-15T13:27:13;6.10;;;2.70;;
24335;SDS011;75016;52.400;16.880;2024-01-15T13:29:40;5.10;;;2.80;;
24335;SDS011;75016;52.400;16.880;2024-01-15T13:32:06;6.90;;;2.50;;
24335;SDS011;75016;52.400;16.880;2024-01-15T13:34:33;6.20;;;2.70;;
24335;SDS011;75016;52.400;16.880;2024-01-15T13:36:59;4.40;;;2.70;;
24335;SDS011;75016;52.400;16.880;2024-01-15T13:39:26;4.70;;;2.50;;
24335;SDS011;75016;52.400;16.880;2024-01-15T13:41:52;2.90;;;2.10;;
24335;SDS011;75016;52.400;16.880;2024-01-15T13:44:19;5.90;;;2.30;;
24335;SDS011;75016;52.400;16.880;2024-01-15T13:46:46;6.80;;;2.80;;
24335;SDS011;75016;52.400;16.880;2024-01-15T13:49:12;4.60;;;2.10;;
24335;SDS011;75016;52.400;16.880;2024-01-15T13:51:40;6.10;;;2.70;;
24335;SDS011;75016;52.400;16.880;2024-01-15T13:54:06;5.10;;;2.50;;
24335;SDS011;75016;52.400;16.880;2024-01-15T13:56:33;4.80;;;2.20;;
24335;SDS011;75016;52.400;16.880;2024-01-15T13:59:01;4.70;;;2.20;;
24335;SDS011;75016;52.400;16.880;2024-01-15T14:01:30;4.30;;;1.70;;
24335;SDS011;75016;52.400;16.880;2024-01-15T14:03:57;3.00;;;1.80;;
24335;SDS011;75016;52.400;16.880;2024-01-15T14:06:23;5.50;;;2.40;;
24335;SDS011;75016;52.400;16.880;2024-01-15T14:08:50;4.30;;;1.90;;
24335;SDS011;75016;52.400;16.880;2024-01-15T14:11:16;5.60;;;2.20;;
24335;SDS011;75016;52.400;16.880;2024-01-15T14:13:43;6.40;;;2.50;;
24335;SDS011;75016;52.400;16.880;2024-01-15T14:16:09;3.50;;;2.00;;
24335;SDS011;75016;52.400;16.880;2024-01-15T14:18:37;5.60;;;2.90;;
24335;SDS011;75016;52.400;16.880;2024-01-15T14:21:03;4.90;;;2.40;;
24335;SDS011;75016;52.400;16.880;2024-01-15T14:23:30;6.60;;;2.60;;
24335;SDS011;75016;52.400;16.880;2024-01-15T14:25:57;5.50;;;2.60;;
24335;SDS011;75016;52.400;16.880;2024-01-15T14:28:23;4.80;;;2.20;;